Terminal Aerodrome Forecast
Issued by NWS Wakefield, VA

Home | Current Version | Previous Version | Text Only | Print | Product List | Glossary On
Versions: 1 2 3 4 5 6 7 8 9 10 11 12 13 14 15 16 17 18
000
FTUS41 KAKQ 271606 AAB
TAFSBY
TAF AMD
KSBY 271606Z 2716/2812 24009KT P6SM OVC025
     FM272000 23008KT 5SM SHRA SCT025 BKN040
     FM280000 19005KT 5SM SHRA BKN010=

USA.gov is the U.S. government's official web portal to all federal, state and local government web resources and services.